sensor_id;sensor_type;location;lat;lon;timestamp;temperature;humidity
2967;DHT22;1493;51.496;7.210;2023-06-04T00:01:59;14.10;99.90
2967;DHT22;1493;51.496;7.210;2023-06-04T00:04:26;14.10;99.90
2967;DHT22;1493;51.496;7.210;2023-06-04T00:06:54;14.10;99.90
2967;DHT22;1493;51.496;7.210;2023-06-04T00:09:21;14.10;99.90
2967;DHT22;1493;51.496;7.210;2023-06-04T00:11:49;14.00;99.90
2967;DHT22;1493;51.496;7.210;2023-06-04T00:14:16;14.10;99.90
2967;DHT22;1493;51.496;7.210;2023-06-04T00:16:43;14.00;99.90
2967;DHT22;1493;51.496;7.210;2023-06-04T00:19:10;14.00;99.90
2967;DHT22;1493;51.496;7.210;2023-06-04T00:21:37;14.00;99.90
2967;DHT22;1493;51.496;7.210;2023-06-04T00:24:04;14.00;99.90
2967;DHT22;1493;51.496;7.210;2023-06-04T00:26:31;13.90;99.90
2967;DHT22;1493;51.496;7.210;2023-06-04T00:29:00;14.00;99.90
2967;DHT22;1493;51.496;7.210;2023-06-04T00:31:27;14.00;99.90
2967;DHT22;1493;51.496;7.210;2023-06-04T00:33:54;14.00;99.90
2967;DHT22;1493;51.496;7.210;2023-06-04T00:36:21;14.00;99.90
2967;DHT22;1493;51.496;7.210;2023-06-04T00:38:48;14.10;99.90
2967;DHT22;1493;51.496;7.210;2023-06-04T00:41:14;14.10;99.90
2967;DHT22;1493;51.496;7.210;2023-06-04T00:43:42;14.10;99.90
2967;DHT22;1493;51.496;7.210;2023-06-04T00:46:12;14.10;99.90
2967;DHT22;1493;51.496;7.210;2023-06-04T00:48:43;14.00;99.90
2967;DHT22;1493;51.496;7.210;2023-06-04T00:51:11;14.10;99.90
2967;DHT22;1493;51.496;7.210;2023-06-04T00:53:38;14.00;99.90
2967;DHT22;1493;51.496;7.210;2023-06-04T00:56:05;13.90;99.90
2967;DHT22;1493;51.496;7.210;2023-06-04T00:58:33;14.00;99.90
2967;DHT22;1493;51.496;7.210;2023-06-04T01:01:04;13.90;99.90
2967;DHT22;1493;51.496;7.210;2023-06-04T01:03:38;13.90;99.90
2967;DHT22;1493;51.496;7.210;2023-06-04T01:06:14;13.90;99.90
2967;DHT22;1493;51.496;7.210;2023-06-04T01:08:46;13.90;99.90
2967;DHT22;1493;51.496;7.210;2023-06-04T01:11:14;13.90;99.90
2967;DHT22;1493;51.496;7.210;2023-06-04T01:13:41;13.90;99.90
2967;DHT22;1493;51.496;7.210;2023-06-04T01:16:10;13.80;99.90
2967;DHT22;1493;51.496;7.210;2023-06-04T01:18:39;13.80;99.90
2967;DHT22;1493;51.496;7.210;2023-06-04T01:21:09;13.80;99.90
2967;DHT22;1493;51.496;7.210;2023-06-04T01:23:45;13.80;99.90
2967;DHT22;1493;51.496;7.210;2023-06-04T01:26:13;13.80;99.90
2967;DHT22;1493;51.496;7.210;2023-06-04T01:28:40;13.70;99.90
2967;DHT22;1493;51.496;7.210;2023-06-04T01:31:08;13.80;99.90
2967;DHT22;1493;51.496;7.210;2023-06-04T01:33:36;13.70;99.90
2967;DHT22;1493;51.496;7.210;2023-06-04T01:36:04;13.70;99.90
2967;DHT22;1493;51.496;7.210;2023-06-04T01:38:31;13.70;99.90
2967;DHT22;1493;51.496;7.210;2023-06-04T01:40:58;13.70;99.90
2967;DHT22;1493;51.496;7.210;2023-06-04T01:43:27;13.70;99.90
2967;DHT22;1493;51.496;7.210;2023-06-04T01:45:54;13.60;99.90
2967;DHT22;1493;51.496;7.210;2023-06-04T01:48:22;13.60;99.90
2967;DHT22;1493;51.496;7.210;2023-06-04T01:50:49;13.60;99.90
2967;DHT22;1493;51.496;7.210;2023-06-04T01:53:17;13.50;1.00
2967;DHT22;1493;51.496;7.210;2023-06-04T01:55:44;13.50;1.00
2967;DHT22;1493;51.496;7.210;2023-06-04T01:58:10;13.40;1.00
2967;DHT22;1493;51.496;7.210;2023-06-04T02:00:37;13.40;1.00
2967;DHT22;1493;51.496;7.210;2023-06-04T02:03:04;13.40;1.00
2967;DHT22;1493;51.496;7.210;2023-06-04T02:05:31;13.30;1.00
2967;DHT22;1493;51.496;7.210;2023-06-04T02:07:58;13.40;1.00
2967;DHT22;1493;51.496;7.210;2023-06-04T02:10:28;13.40;1.00
2967;DHT22;1493;51.496;7.210;2023-06-04T02:12:57;13.40;1.00
2967;DHT22;1493;51.496;7.210;2023-06-04T02:15:24;13.30;1.00
2967;DHT22;1493;51.496;7.210;2023-06-04T02:18:00;13.30;1.00
2967;DHT22;1493;51.496;7.210;2023-06-04T02:20:38;13.20;1.00
2967;DHT22;1493;51.496;7.210;2023-06-04T02:23:05;13.20;1.00
2967;DHT22;1493;51.496;7.210;2023-06-04T02:25:33;13.10;1.00
2967;DHT22;1493;51.496;7.210;2023-06-04T02:28:00;13.10;1.00
2967;DHT22;1493;51.496;7.210;2023-06-04T02:30:26;13.00;1.00
2967;DHT22;1493;51.496;7.210;2023-06-04T02:32:53;12.90;39.80
2967;DHT22;1493;51.496;7.210;2023-06-04T02:35:20;12.90;1.00
2967;DHT22;1493;51.496;7.210;2023-06-04T02:37:48;12.80;99.90
2967;DHT22;1493;51.496;7.210;2023-06-04T02:40:15;12.80;99.90
2967;DHT22;1493;51.496;7.210;2023-06-04T02:42:43;12.80;99.90
2967;DHT22;1493;51.496;7.210;2023-06-04T02:45:10;12.70;99.90
2967;DHT22;1493;51.496;7.210;2023-06-04T02:47:37;12.70;99.90
2967;DHT22;1493;51.496;7.210;2023-06-04T02:50:05;12.60;1.00
2967;DHT22;1493;51.496;7.210;2023-06-04T02:52:32;12.60;99.90
2967;DHT22;1493;51.496;7.210;2023-06-04T02:55:03;12.50;99.90
2967;DHT22;1493;51.496;7.210;2023-06-04T02:57:29;12.50;1.00
2967;DHT22;1493;51.496;7.210;2023-06-04T02:59:58;12.40;99.90
2967;DHT22;1493;51.496;7.210;2023-06-04T03:02:25;12.40;1.00
2967;DHT22;1493;51.496;7.210;2023-06-04T03:04:53;12.40;1.00
2967;DHT22;1493;51.496;7.210;2023-06-04T03:07:20;12.40;1.00
2967;DHT22;1493;51.496;7.210;2023-06-04T03:09:48;12.30;1.00
2967;DHT22;1493;51.496;7.210;2023-06-04T03:12:15;12.30;1.00
2967;DHT22;1493;51.496;7.210;2023-06-04T03:14:42;12.30;1.00
2967;DHT22;1493;51.496;7.210;2023-06-04T03:17:10;12.30;99.90
2967;DHT22;1493;51.496;7.210;2023-06-04T03:19:38;12.20;1.00
2967;DHT22;1493;51.496;7.210;2023-06-04T03:22:07;12.20;99.90
2967;DHT22;1493;51.496;7.210;2023-06-04T03:24:35;12.20;29.50
2967;DHT22;1493;51.496;7.210;2023-06-04T03:27:02;12.20;1.00
2967;DHT22;1493;51.496;7.210;2023-06-04T03:29:29;12.10;99.90
2967;DHT22;1493;51.496;7.210;2023-06-04T03:31:57;12.10;99.90
2967;DHT22;1493;51.496;7.210;2023-06-04T03:34:25;12.10;99.90
2967;DHT22;1493;51.496;7.210;2023-06-04T03:36:52;12.10;99.90
2967;DHT22;1493;51.496;7.210;2023-06-04T03:39:19;12.10;95.00
2967;DHT22;1493;51.496;7.210;2023-06-04T03:41:46;12.10;99.90
2967;DHT22;1493;51.496;7.210;2023-06-04T03:44:13;12.10;99.90
2967;DHT22;1493;51.496;7.210;2023-06-04T03:46:40;12.00;99.90
2967;DHT22;1493;51.496;7.210;2023-06-04T03:49:08;12.00;1.00
2967;DHT22;1493;51.496;7.210;2023-06-04T03:51:38;12.00;14.60
2967;DHT22;1493;51.496;7.210;2023-06-04T03:54:05;12.00;99.90
2967;DHT22;1493;51.496;7.210;2023-06-04T03:56:32;11.90;1.00
2967;DHT22;1493;51.496;7.210;2023-06-04T03:58:59;11.90;99.90
2967;DHT22;1493;51.496;7.210;2023-06-04T04:01:26;11.80;99.90
2967;DHT22;1493;51.496;7.210;2023-06-04T04:03:53;11.80;1.00
2967;DHT22;1493;51.496;7.210;2023-06-04T04:06:21;11.80;1.00
2967;DHT22;1493;51.496;7.210;2023-06-04T04:08:49;11.80;1.00
2967;DHT22;1493;51.496;7.210;2023-06-04T04:11:16;11.80;99.90
2967;DHT22;1493;51.496;7.210;2023-06-04T04:13:44;11.80;99.90
2967;DHT22;1493;51.496;7.210;2023-06-04T04:16:11;11.80;50.00
2967;DHT22;1493;51.496;7.210;2023-06-04T04:18:40;11.90;1.00
2967;DHT22;1493;51.496;7.210;2023-06-04T04:21:07;11.90;1.00
2967;DHT22;1493;51.496;7.210;2023-06-04T04:23:34;11.90;4.70
2967;DHT22;1493;51.496;7.210;2023-06-04T04:26:02;11.90;99.90
2967;DHT22;1493;51.496;7.210;2023-06-04T04:28:29;12.00;99.90
2967;DHT22;1493;51.496;7.210;2023-06-04T04:30:58;12.10;1.00
2967;DHT22;1493;51.496;7.210;2023-06-04T04:33:28;12.10;99.90
2967;DHT22;1493;51.496;7.210;2023-06-04T04:35:58;12.10;99.90
2967;DHT22;1493;51.496;7.210;2023-06-04T04:38:26;12.20;99.90
2967;DHT22;1493;51.496;7.210;2023-06-04T04:40:54;12.20;31.20
2967;DHT22;1493;51.496;7.210;2023-06-04T04:43:30;12.30;99.90
2967;DHT22;1493;51.496;7.210;2023-06-04T04:45:57;12.30;1.00
2967;DHT22;1493;51.496;7.210;2023-06-04T04:48:25;12.40;99.90
2967;DHT22;1493;51.496;7.210;2023-06-04T04:50:52;12.40;1.00
2967;DHT22;1493;51.496;7.210;2023-06-04T04:53:19;12.50;1.00
2967;DHT22;1493;51.496;7.210;2023-06-04T04:55:46;12.50;99.90
2967;DHT22;1493;51.496;7.210;2023-06-04T04:58:13;12.60;99.90
2967;DHT22;1493;51.496;7.210;2023-06-04T05:00:41;12.60;99.90
2967;DHT22;1493;51.496;7.210;2023-06-04T05:03:08;12.70;80.50
2967;DHT22;1493;51.496;7.210;2023-06-04T05:05:35;12.70;99.90
2967;DHT22;1493;51.496;7.210;2023-06-04T05:08:03;12.80;1.00
2967;DHT22;1493;51.496;7.210;2023-06-04T05:10:29;12.80;99.90
2967;DHT22;1493;51.496;7.210;2023-06-04T05:12:58;12.90;99.90
2967;DHT22;1493;51.496;7.210;2023-06-04T05:15:26;13.00;57.40
2967;DHT22;1493;51.496;7.210;2023-06-04T05:17:54;13.00;98.50
2967;DHT22;1493;51.496;7.210;2023-06-04T05:20:21;13.00;99.90
2967;DHT22;1493;51.496;7.210;2023-06-04T05:22:48;13.00;1.00
2967;DHT22;1493;51.496;7.210;2023-06-04T05:25:16;13.10;1.00
2967;DHT22;1493;51.496;7.210;2023-06-04T05:27:43;13.20;1.00
2967;DHT22;1493;51.496;7.210;2023-06-04T05:30:11;13.30;99.90
2967;DHT22;1493;51.496;7.210;2023-06-04T05:32:39;13.30;1.00
2967;DHT22;1493;51.496;7.210;2023-06-04T05:35:08;13.40;1.00
2967;DHT22;1493;51.496;7.210;2023-06-04T05:37:37;13.40;1.00
2967;DHT22;1493;51.496;7.210;2023-06-04T05:40:06;13.50;99.90
2967;DHT22;1493;51.496;7.210;2023-06-04T05:42:35;13.60;1.00
2967;DHT22;1493;51.496;7.210;2023-06-04T05:45:02;13.70;99.90
2967;DHT22;1493;51.496;7.210;2023-06-04T05:47:28;13.80;99.90
2967;DHT22;1493;51.496;7.210;2023-06-04T05:49:57;13.90;1.00
2967;DHT22;1493;51.496;7.210;2023-06-04T05:52:25;14.00;1.00
2967;DHT22;1493;51.496;7.210;2023-06-04T05:54:52;14.10;99.90
2967;DHT22;1493;51.496;7.210;2023-06-04T05:57:20;14.10;24.70
2967;DHT22;1493;51.496;7.210;2023-06-04T05:59:46;14.20;1.00
2967;DHT22;1493;51.496;7.210;2023-06-04T06:02:13;14.30;99.90
2967;DHT22;1493;51.496;7.210;2023-06-04T06:04:40;14.40;99.90
2967;DHT22;1493;51.496;7.210;2023-06-04T06:07:07;14.40;5.10
2967;DHT22;1493;51.496;7.210;2023-06-04T06:09:35;14.50;1.00
2967;DHT22;1493;51.496;7.210;2023-06-04T06:12:02;14.60;1.80
2967;DHT22;1493;51.496;7.210;2023-06-04T06:14:31;14.70;1.00
2967;DHT22;1493;51.496;7.210;2023-06-04T06:16:57;14.70;1.00
2967;DHT22;1493;51.496;7.210;2023-06-04T06:19:24;14.80;1.00
2967;DHT22;1493;51.496;7.210;2023-06-04T06:21:51;14.90;1.00
2967;DHT22;1493;51.496;7.210;2023-06-04T06:24:18;15.00;1.00
2967;DHT22;1493;51.496;7.210;2023-06-04T06:26:46;15.00;1.00
2967;DHT22;1493;51.496;7.210;2023-06-04T06:29:13;15.10;1.00
2967;DHT22;1493;51.496;7.210;2023-06-04T06:31:40;15.20;1.00
2967;DHT22;1493;51.496;7.210;2023-06-04T06:34:07;15.20;1.00
2967;DHT22;1493;51.496;7.210;2023-06-04T06:36:33;15.30;1.00
2967;DHT22;1493;51.496;7.210;2023-06-04T06:39:00;15.30;1.00
2967;DHT22;1493;51.496;7.210;2023-06-04T06:41:27;15.40;1.00
2967;DHT22;1493;51.496;7.210;2023-06-04T06:43:56;15.50;1.00
2967;DHT22;1493;51.496;7.210;2023-06-04T06:46:23;15.50;1.00
2967;DHT22;1493;51.496;7.210;2023-06-04T06:48:50;15.60;1.00
2967;DHT22;1493;51.496;7.210;2023-06-04T06:51:17;15.70;1.00
2967;DHT22;1493;51.496;7.210;2023-06-04T06:53:44;15.80;1.00
2967;DHT22;1493;51.496;7.210;2023-06-04T06:56:10;15.90;1.00
2967;DHT22;1493;51.496;7.210;2023-06-04T06:58:37;16.00;1.00
2967;DHT22;1493;51.496;7.210;2023-06-04T07:01:05;16.00;99.90
2967;DHT22;1493;51.496;7.210;2023-06-04T07:03:32;16.00;99.90
2967;DHT22;1493;51.496;7.210;2023-06-04T07:05:59;16.10;99.90
2967;DHT22;1493;51.496;7.210;2023-06-04T07:08:26;16.20;99.90
2967;DHT22;1493;51.496;7.210;2023-06-04T07:10:53;16.40;99.90
2967;DHT22;1493;51.496;7.210;2023-06-04T07:13:20;16.40;99.90
2967;DHT22;1493;51.496;7.210;2023-06-04T07:15:47;16.50;99.90
2967;DHT22;1493;51.496;7.210;2023-06-04T07:18:15;16.60;99.90
2967;DHT22;1493;51.496;7.210;2023-06-04T07:20:42;16.70;99.90
2967;DHT22;1493;51.496;7.210;2023-06-04T07:23:09;16.90;99.90
2967;DHT22;1493;51.496;7.210;2023-06-04T07:25:36;17.00;99.90
2967;DHT22;1493;51.496;7.210;2023-06-04T07:28:03;17.10;99.90
2967;DHT22;1493;51.496;7.210;2023-06-04T07:30:30;17.10;99.90
2967;DHT22;1493;51.496;7.210;2023-06-04T07:32:57;17.20;99.90
2967;DHT22;1493;51.496;7.210;2023-06-04T07:35:26;17.30;99.90
2967;DHT22;1493;51.496;7.210;2023-06-04T07:37:52;17.40;99.90
2967;DHT22;1493;51.496;7.210;2023-06-04T07:40:19;17.50;99.90
2967;DHT22;1493;51.496;7.210;2023-06-04T07:42:46;17.50;99.90
2967;DHT22;1493;51.496;7.210;2023-06-04T07:45:14;17.60;99.90
2967;DHT22;1493;51.496;7.210;2023-06-04T07:47:41;17.70;99.90
2967;DHT22;1493;51.496;7.210;2023-06-04T07:50:08;17.70;99.90
2967;DHT22;1493;51.496;7.210;2023-06-04T07:52:36;17.80;99.90
2967;DHT22;1493;51.496;7.210;2023-06-04T07:55:03;18.00;99.90
2967;DHT22;1493;51.496;7.210;2023-06-04T07:57:31;18.20;99.90
2967;DHT22;1493;51.496;7.210;2023-06-04T07:59:58;18.30;99.90
2967;DHT22;1493;51.496;7.210;2023-06-04T08:02:25;18.50;99.90
2967;DHT22;1493;51.496;7.210;2023-06-04T08:04:52;18.60;99.90
2967;DHT22;1493;51.496;7.210;2023-06-04T08:07:19;18.70;99.90
2967;DHT22;1493;51.496;7.210;2023-06-04T08:09:47;18.90;99.90
2967;DHT22;1493;51.496;7.210;2023-06-04T08:12:15;19.10;99.90
2967;DHT22;1493;51.496;7.210;2023-06-04T08:14:42;19.20;99.90
2967;DHT22;1493;51.496;7.210;2023-06-04T08:17:09;19.40;99.90
2967;DHT22;1493;51.496;7.210;2023-06-04T08:19:36;19.60;99.90
2967;DHT22;1493;51.496;7.210;2023-06-04T08:22:02;19.80;99.90
2967;DHT22;1493;51.496;7.210;2023-06-04T08:24:29;20.00;99.90
2967;DHT22;1493;51.496;7.210;2023-06-04T08:26:58;20.10;99.90
2967;DHT22;1493;51.496;7.210;2023-06-04T08:29:25;20.10;99.90
2967;DHT22;1493;51.496;7.210;2023-06-04T08:31:52;20.30;99.90
2967;DHT22;1493;51.496;7.210;2023-06-04T08:34:19;20.50;99.90
2967;DHT22;1493;51.496;7.210;2023-06-04T08:36:46;20.60;99.90
2967;DHT22;1493;51.496;7.210;2023-06-04T08:39:13;20.80;99.90
2967;DHT22;1493;51.496;7.210;2023-06-04T08:41:43;21.00;99.90
2967;DHT22;1493;51.496;7.210;2023-06-04T08:44:12;21.10;99.90
2967;DHT22;1493;51.496;7.210;2023-06-04T08:46:39;21.30;99.90
2967;DHT22;1493;51.496;7.210;2023-06-04T08:49:07;21.50;99.90
2967;DHT22;1493;51.496;7.210;2023-06-04T08:51:36;21.60;99.90
2967;DHT22;1493;51.496;7.210;2023-06-04T08:54:05;21.80;99.90
2967;DHT22;1493;51.496;7.210;2023-06-04T08:56:33;22.20;99.90
2967;DHT22;1493;51.496;7.210;2023-06-04T08:59:02;22.50;99.90
2967;DHT22;1493;51.496;7.210;2023-06-04T09:01:32;22.70;99.90
2967;DHT22;1493;51.496;7.210;2023-06-04T09:04:03;22.80;99.90
2967;DHT22;1493;51.496;7.210;2023-06-04T09:06:32;22.80;99.90
2967;DHT22;1493;51.496;7.210;2023-06-04T09:09:02;23.00;99.90
2967;DHT22;1493;51.496;7.210;2023-06-04T09:11:33;23.20;99.90
2967;DHT22;1493;51.496;7.210;2023-06-04T09:14:04;23.30;99.90
2967;DHT22;1493;51.496;7.210;2023-06-04T09:16:43;23.40;99.90
2967;DHT22;1493;51.496;7.210;2023-06-04T09:19:10;23.50;99.90
2967;DHT22;1493;51.496;7.210;2023-06-04T09:21:47;23.60;99.90
2967;DHT22;1493;51.496;7.210;2023-06-04T09:24:14;23.90;99.90
2967;DHT22;1493;51.496;7.210;2023-06-04T09:26:41;24.10;99.90
2967;DHT22;1493;51.496;7.210;2023-06-04T09:29:07;24.30;99.90
2967;DHT22;1493;51.496;7.210;2023-06-04T09:31:34;24.60;99.90
2967;DHT22;1493;51.496;7.210;2023-06-04T09:34:04;24.80;99.90
2967;DHT22;1493;51.496;7.210;2023-06-04T09:36:31;25.00;99.90
2967;DHT22;1493;51.496;7.210;2023-06-04T09:38:58;25.10;99.90
2967;DHT22;1493;51.496;7.210;2023-06-04T09:41:25;25.10;99.90
2967;DHT22;1493;51.496;7.210;2023-06-04T09:43:59;25.10;99.90
2967;DHT22;1493;51.496;7.210;2023-06-04T09:46:28;25.20;99.90
2967;DHT22;1493;51.496;7.210;2023-06-04T09:49:00;25.20;99.90
2967;DHT22;1493;51.496;7.210;2023-06-04T09:51:29;25.30;99.90
2967;DHT22;1493;51.496;7.210;2023-06-04T09:53:57;25.30;99.90
2967;DHT22;1493;51.496;7.210;2023-06-04T09:56:24;25.50;99.90
2967;DHT22;1493;51.496;7.210;2023-06-04T09:58:54;25.60;99.90
2967;DHT22;1493;51.496;7.210;2023-06-04T10:01:22;25.50;99.90
2967;DHT22;1493;51.496;7.210;2023-06-04T10:03:51;25.60;99.90
2967;DHT22;1493;51.496;7.210;2023-06-04T10:06:19;25.70;99.90
2967;DHT22;1493;51.496;7.210;2023-06-04T10:08:49;26.00;99.90
2967;DHT22;1493;51.496;7.210;2023-06-04T10:11:20;26.20;99.90
2967;DHT22;1493;51.496;7.210;2023-06-04T10:13:53;26.30;99.90
2967;DHT22;1493;51.496;7.210;2023-06-04T10:16:20;26.50;99.90
2967;DHT22;1493;51.496;7.210;2023-06-04T10:18:49;26.60;99.90
2967;DHT22;1493;51.496;7.210;2023-06-04T10:21:17;26.60;99.90
2967;DHT22;1493;51.496;7.210;2023-06-04T10:23:44;26.80;99.90
2967;DHT22;1493;51.496;7.210;2023-06-04T10:26:14;27.00;99.90
2967;DHT22;1493;51.496;7.210;2023-06-04T10:28:42;27.10;99.90
2967;DHT22;1493;51.496;7.210;2023-06-04T10:31:09;27.30;99.90
2967;DHT22;1493;51.496;7.210;2023-06-04T10:33:37;27.50;99.90
2967;DHT22;1493;51.496;7.210;2023-06-04T10:36:16;27.60;99.90
2967;DHT22;1493;51.496;7.210;2023-06-04T10:38:47;27.70;99.90
2967;DHT22;1493;51.496;7.210;2023-06-04T10:41:17;27.90;99.90
2967;DHT22;1493;51.496;7.210;2023-06-04T10:43:45;28.10;99.90
2967;DHT22;1493;51.496;7.210;2023-06-04T10:46:12;28.30;99.90
2967;DHT22;1493;51.496;7.210;2023-06-04T10:48:46;28.40;99.90
2967;DHT22;1493;51.496;7.210;2023-06-04T10:51:13;28.60;99.90
2967;DHT22;1493;51.496;7.210;2023-06-04T10:53:40;28.70;99.90
2967;DHT22;1493;51.496;7.210;2023-06-04T10:56:07;28.70;99.90
2967;DHT22;1493;51.496;7.210;2023-06-04T10:58:35;29.10;99.90
2967;DHT22;1493;51.496;7.210;2023-06-04T11:01:02;29.30;99.90
2967;DHT22;1493;51.496;7.210;2023-06-04T11:03:35;29.50;99.90
2967;DHT22;1493;51.496;7.210;2023-06-04T11:06:02;29.90;99.90
2967;DHT22;1493;51.496;7.210;2023-06-04T11:08:40;30.10;99.90
2967;DHT22;1493;51.496;7.210;2023-06-04T11:11:11;30.60;99.90
2967;DHT22;1493;51.496;7.210;2023-06-04T11:13:39;30.80;99.90
2967;DHT22;1493;51.496;7.210;2023-06-04T11:16:14;31.30;99.90
2967;DHT22;1493;51.496;7.210;2023-06-04T11:18:42;31.70;99.90
2967;DHT22;1493;51.496;7.210;2023-06-04T11:21:09;32.10;99.90
2967;DHT22;1493;51.496;7.210;2023-06-04T11:23:37;32.60;99.90
2967;DHT22;1493;51.496;7.210;2023-06-04T11:26:03;33.00;99.90
2967;DHT22;1493;51.496;7.210;2023-06-04T11:28:30;33.50;99.90
2967;DHT22;1493;51.496;7.210;2023-06-04T11:31:00;34.00;99.90
2967;DHT22;1493;51.496;7.210;2023-06-04T11:33:28;34.00;99.90
2967;DHT22;1493;51.496;7.210;2023-06-04T11:35:55;34.40;99.90
2967;DHT22;1493;51.496;7.210;2023-06-04T11:38:22;34.50;99.90
2967;DHT22;1493;51.496;7.210;2023-06-04T11:40:56;35.10;99.90
2967;DHT22;1493;51.496;7.210;2023-06-04T11:43:23;35.40;99.90
2967;DHT22;1493;51.496;7.210;2023-06-04T11:45:50;35.70;99.90
2967;DHT22;1493;51.496;7.210;2023-06-04T11:48:18;35.90;99.90
2967;DHT22;1493;51.496;7.210;2023-06-04T11:50:46;36.20;99.90
2967;DHT22;1493;51.496;7.210;2023-06-04T11:53:13;36.60;99.90
2967;DHT22;1493;51.496;7.210;2023-06-04T11:55:40;36.70;99.90
2967;DHT22;1493;51.496;7.210;2023-06-04T11:58:07;37.10;99.90
2967;DHT22;1493;51.496;7.210;2023-06-04T12:00:34;37.40;99.90
2967;DHT22;1493;51.496;7.210;2023-06-04T12:03:02;37.60;99.90
2967;DHT22;1493;51.496;7.210;2023-06-04T12:05:30;37.60;99.90
2967;DHT22;1493;51.496;7.210;2023-06-04T12:08:05;37.80;99.90
2967;DHT22;1493;51.496;7.210;2023-06-04T12:10:37;38.10;99.90
2967;DHT22;1493;51.496;7.210;2023-06-04T12:13:04;38.50;99.90
2967;DHT22;1493;51.496;7.210;2023-06-04T12:15:31;38.60;99.90
2967;DHT22;1493;51.496;7.210;2023-06-04T12:17:58;38.70;99.90
2967;DHT22;1493;51.496;7.210;2023-06-04T12:20:34;38.70;99.90
2967;DHT22;1493;51.496;7.210;2023-06-04T12:23:01;38.90;99.90
2967;DHT22;1493;51.496;7.210;2023-06-04T12:25:29;38.30;99.90
2967;DHT22;1493;51.496;7.210;2023-06-04T12:27:56;38.50;99.90
2967;DHT22;1493;51.496;7.210;2023-06-04T12:30:23;38.50;99.90
2967;DHT22;1493;51.496;7.210;2023-06-04T12:33:00;38.70;99.90
2967;DHT22;1493;51.496;7.210;2023-06-04T12:35:27;38.90;99.90
2967;DHT22;1493;51.496;7.210;2023-06-04T12:37:55;38.90;99.90
2967;DHT22;1493;51.496;7.210;2023-06-04T12:40:22;38.90;99.90
2967;DHT22;1493;51.496;7.210;2023-06-04T12:42:50;39.10;99.90
2967;DHT22;1493;51.496;7.210;2023-06-04T12:45:17;38.80;99.90
2967;DHT22;1493;51.496;7.210;2023-06-04T12:47:44;38.50;99.90
2967;DHT22;1493;51.496;7.210;2023-06-04T12:50:11;38.70;99.90
2967;DHT22;1493;51.496;7.210;2023-06-04T12:52:38;38.60;99.90
2967;DHT22;1493;51.496;7.210;2023-06-04T12:55:08;38.50;99.90
2967;DHT22;1493;51.496;7.210;2023-06-04T12:57:35;38.80;99.90
2967;DHT22;1493;51.496;7.210;2023-06-04T13:00:03;38.80;99.90
2967;DHT22;1493;51.496;7.210;2023-06-04T13:02:30;38.70;99.90
2967;DHT22;1493;51.496;7.210;2023-06-04T13:04:57;38.70;99.90
2967;DHT22;1493;51.496;7.210;2023-06-04T13:07:24;38.60;99.90
2967;DHT22;1493;51.496;7.210;2023-06-04T13:09:50;38.40;99.90
2967;DHT22;1493;51.496;7.210;2023-06-04T13:12:19;38.40;99.90
2967;DHT22;1493;51.496;7.210;2023-06-04T13:14:45;38.40;99.90
2967;DHT22;1493;51.496;7.210;2023-06-04T13:17:12;38.40;99.90
2967;DHT22;1493;51.496;7.210;2023-06-04T13:19:39;38.30;99.90
2967;DHT22;1493;51.496;7.210;2023-06-04T13:22:06;38.20;99.90
2967;DHT22;1493;51.496;7.210;2023-06-04T13:24:34;38.20;99.90
2967;DHT22;1493;51.496;7.210;2023-06-04T13:27:01;38.30;99.90
2967;DHT22;1493;51.496;7.210;2023-06-04T13:29:29;38.20;99.90
2967;DHT22;1493;51.496;7.210;2023-06-04T13:31:59;38.10;99.90
2967;DHT22;1493;51.496;7.210;2023-06-04T13:34:25;38.10;99.90
2967;DHT22;1493;51.496;7.210;2023-06-04T13:36:52;38.00;99.90
2967;DHT22;1493;51.496;7.210;2023-06-04T13:39:19;37.90;99.90
2967;DHT22;1493;51.496;7.210;2023-06-04T13:41:46;37.60;99.90
2967;DHT22;1493;51.496;7.210;2023-06-04T13:44:13;37.40;99.90
2967;DHT22;1493;51.496;7.210;2023-06-04T13:46:42;37.50;99.90
2967;DHT22;1493;51.496;7.210;2023-06-04T13:49:09;37.30;99.90
2967;DHT22;1493;51.496;7.210;2023-06-04T13:51:36;37.30;99.90
2967;DHT22;1493;51.496;7.210;2023-06-04T13:54:03;37.40;99.90
2967;DHT22;1493;51.496;7.210;2023-06-04T13:56:29;37.20;99.90
2967;DHT22;1493;51.496;7.210;2023-06-04T13:58:56;36.90;99.90
2967;DHT22;1493;51.496;7.210;2023-06-04T14:01:23;36.60;99.90
2967;DHT22;1493;51.496;7.210;2023-06-04T14:03:51;36.60;99.90
2967;DHT22;1493;51.496;7.210;2023-06-04T14:06:18;36.60;99.90
2967;DHT22;1493;51.496;7.210;2023-06-04T14:08:45;36.20;99.90
2967;DHT22;1493;51.496;7.210;2023-06-04T14:11:12;36.40;99.90
2967;DHT22;1493;51.496;7.210;2023-06-04T14:13:39;36.50;99.90
2967;DHT22;1493;51.496;7.210;2023-06-04T14:16:07;36.50;99.90
2967;DHT22;1493;51.496;7.210;2023-06-04T14:18:34;36.60;99.90
2967;DHT22;1493;51.496;7.210;2023-06-04T14:21:02;36.10;99.90
2967;DHT22;1493;51.496;7.210;2023-06-04T14:23:29;36.20;99.90
2967;DHT22;1493;51.496;7.210;2023-06-04T14:25:55;35.80;99.90
2967;DHT22;1493;51.496;7.210;2023-06-04T14:28:22;35.60;99.90
2967;DHT22;1493;51.496;7.210;2023-06-04T14:30:49;35.80;99.90
2967;DHT22;1493;51.496;7.210;2023-06-04T14:33:16;35.90;99.90
2967;DHT22;1493;51.496;7.210;2023-06-04T14:35:43;35.90;99.90
2967;DHT22;1493;51.496;7.210;2023-06-04T14:38:13;35.30;99.90
2967;DHT22;1493;51.496;7.210;2023-06-04T14:40:41;35.30;99.90
2967;DHT22;1493;51.496;7.210;2023-06-04T14:43:10;35.60;99.90
2967;DHT22;1493;51.496;7.210;2023-06-04T14:45:37;35.60;99.90
2967;DHT22;1493;51.496;7.210;2023-06-04T14:48:05;35.50;99.90
2967;DHT22;1493;51.496;7.210;2023-06-04T14:50:32;35.30;99.90
2967;DHT22;1493;51.496;7.210;2023-06-04T14:52:59;35.20;99.90
2967;DHT22;1493;51.496;7.210;2023-06-04T14:55:27;35.20;99.90
2967;DHT22;1493;51.496;7.210;2023-06-04T14:57:54;35.10;99.90
2967;DHT22;1493;51.496;7.210;2023-06-04T15:00:21;35.00;99.90
2967;DHT22;1493;51.496;7.210;2023-06-04T15:02:47;35.00;99.90
2967;DHT22;1493;51.496;7.210;2023-06-04T15:05:14;35.10;99.90
2967;DHT22;1493;51.496;7.210;2023-06-04T15:07:41;35.20;99.90
2967;DHT22;1493;51.496;7.210;2023-06-04T15:10:08;35.10;99.90
2967;DHT22;1493;51.496;7.210;2023-06-04T15:12:36;34.60;99.90
2967;DHT22;1493;51.496;7.210;2023-06-04T15:15:05;34.60;99.90
2967;DHT22;1493;51.496;7.210;2023-06-04T15:17:33;34.60;99.90
2967;DHT22;1493;51.496;7.210;2023-06-04T15:20:00;34.70;99.90
2967;DHT22;1493;51.496;7.210;2023-06-04T15:22:28;34.60;99.90
2967;DHT22;1493;51.496;7.210;2023-06-04T15:24:54;34.20;99.90
2967;DHT22;1493;51.496;7.210;2023-06-04T15:27:21;34.30;99.90
2967;DHT22;1493;51.496;7.210;2023-06-04T15:29:49;34.20;99.90
2967;DHT22;1493;51.496;7.210;2023-06-04T15:32:17;34.00;99.90
2967;DHT22;1493;51.496;7.210;2023-06-04T15:34:44;33.90;99.90
2967;DHT22;1493;51.496;7.210;2023-06-04T15:37:11;33.90;99.90
2967;DHT22;1493;51.496;7.210;2023-06-04T15:39:38;33.70;99.90
2967;DHT22;1493;51.496;7.210;2023-06-04T15:42:05;33.60;99.90
2967;DHT22;1493;51.496;7.210;2023-06-04T15:44:32;33.40;99.90
2967;DHT22;1493;51.496;7.210;2023-06-04T15:47:00;33.10;99.90
2967;DHT22;1493;51.496;7.210;2023-06-04T15:49:28;33.00;99.90
2967;DHT22;1493;51.496;7.210;2023-06-04T15:51:54;32.90;99.90
2967;DHT22;1493;51.496;7.210;2023-06-04T15:54:21;32.60;99.90
2967;DHT22;1493;51.496;7.210;2023-06-04T15:56:48;32.30;99.90
2967;DHT22;1493;51.496;7.210;2023-06-04T15:59:15;31.90;99.90
2967;DHT22;1493;51.496;7.210;2023-06-04T16:01:42;31.80;99.90
2967;DHT22;1493;51.496;7.210;2023-06-04T16:04:12;31.50;99.90
2967;DHT22;1493;51.496;7.210;2023-06-04T16:06:39;31.50;99.90
2967;DHT22;1493;51.496;7.210;2023-06-04T16:09:06;31.50;99.90